KVKS/VKS METAR and TAF weather

Enter ICAO airport designator
Station Type Date Time Source
KVKS METAR 2022/11/30 11:35 UTC NOAA

KVKS 301135Z AUTO 35015G22KT 10SM FEW024 FEW030 OVC047 13/08 A3010 RMK A01


Station Type Date Time Source
KVKS Decoded METAR 2022/11/30 11:35 UTC NOAA

Vicksburg Municipal, MS, United States (KVKS) 32-14N 090-56W
Nov 30, 2022 - 06:35 AM EST / 2022.11.30 1135 UTC
Wind: from the N (350 degrees) at 17 MPH (15 KT) gusting to 25 MPH (22 KT):0
Visibility: 10 mile(s):0
Sky conditions: overcast
Temperature: 55 F (13 C)
Dew Point: 46 F (8 C)
Relative Humidity: 71%
Pressure (altimeter): 30.1 in. Hg (1019 hPa)
ob: KVKS 301135Z AUTO 35015G22KT 10SM FEW024 FEW030 OVC047 13/08 A3010 RMK A01
cycle: 11

Station Type Date Time Source
KVKS TAF UTC NOAA

Error!

Example: see airport list